createdAt,value
2019-03-16T00:01:33.557Z,1.10
2019-03-16T00:06:28.159Z,0.70
2019-03-16T00:11:22.744Z,0.70
2019-03-16T00:16:17.330Z,0.90
2019-03-16T00:21:11.913Z,1.00
2019-03-16T00:26:06.513Z,0.70
2019-03-16T00:31:01.123Z,0.77
2019-03-16T00:35:55.704Z,0.50
2019-03-16T00:40:50.306Z,0.77
2019-03-16T00:45:44.899Z,0.77
2019-03-16T00:50:39.510Z,0.50
2019-03-16T00:55:34.112Z,0.67
2019-03-16T01:00:28.770Z,0.60
2019-03-16T01:05:23.459Z,0.47
2019-03-16T01:10:18.185Z,0.70
2019-03-16T01:15:14.321Z,0.60
2019-03-16T01:20:11.786Z,0.47
2019-03-16T01:25:09.012Z,0.57
2019-03-16T01:30:04.465Z,0.70
2019-03-16T01:34:59.075Z,0.60
2019-03-16T01:39:53.684Z,0.33
2019-03-16T01:44:48.272Z,0.70
2019-03-16T01:49:42.941Z,0.40
2019-03-16T01:54:37.557Z,0.50
2019-03-16T01:59:32.146Z,0.50
2019-03-16T02:04:26.916Z,0.67
2019-03-16T02:09:21.501Z,0.60
2019-03-16T02:14:16.097Z,0.40
2019-03-16T02:19:10.689Z,0.60
2019-03-16T02:24:05.431Z,0.30
2019-03-16T02:29:00.039Z,0.50
2019-03-16T02:33:54.647Z,0.30
2019-03-16T02:38:49.236Z,0.67
2019-03-16T02:43:43.826Z,0.57
2019-03-16T02:48:38.409Z,0.60
2019-03-16T02:53:32.998Z,0.40
2019-03-16T02:58:27.626Z,0.50
2019-03-16T03:03:29.293Z,0.40
2019-03-16T03:08:18.574Z,0.43
2019-03-16T03:13:14.119Z,0.40
2019-03-16T03:18:09.037Z,0.30
2019-03-16T03:23:03.637Z,0.30
2019-03-16T03:27:58.251Z,0.40
2019-03-16T03:32:52.845Z,0.50
2019-03-16T03:37:47.454Z,0.50
2019-03-16T03:42:42.050Z,0.33
2019-03-16T03:47:36.660Z,0.50
2019-03-16T03:52:31.253Z,0.40
2019-03-16T03:57:25.844Z,0.60
2019-03-16T04:02:20.525Z,0.40
2019-03-16T04:07:19.704Z,0.30
2019-03-16T04:12:11.715Z,0.40
2019-03-16T04:17:06.350Z,0.40
2019-03-16T04:22:01.013Z,0.30
2019-03-16T04:26:55.617Z,0.30
2019-03-16T04:31:50.207Z,0.47
2019-03-16T04:36:44.793Z,0.60
2019-03-16T04:41:39.379Z,0.60
2019-03-16T04:46:33.989Z,0.73
2019-03-16T04:51:28.669Z,0.50
2019-03-16T04:56:23.245Z,0.60
2019-03-16T05:01:17.830Z,0.40
2019-03-16T05:06:12.485Z,0.60
2019-03-16T05:11:07.072Z,0.80
2019-03-16T05:16:01.659Z,0.73
2019-03-16T05:20:56.234Z,0.80
2019-03-16T05:25:50.837Z,0.70
2019-03-16T05:30:45.403Z,1.30
2019-03-16T05:35:39.999Z,0.73
2019-03-16T05:40:34.564Z,1.10
2019-03-16T05:45:29.187Z,0.70
2019-03-16T05:50:23.767Z,0.70
2019-03-16T05:55:18.377Z,0.70
2019-03-16T06:00:17.227Z,0.60
2019-03-16T06:05:11.949Z,0.60
2019-03-16T06:10:12.179Z,0.60
2019-03-16T06:15:10.331Z,0.80
2019-03-16T06:20:14.303Z,0.40
2019-03-16T06:25:10.388Z,0.60
2019-03-16T06:30:10.720Z,0.60
2019-03-16T06:35:06.559Z,0.40
2019-03-16T06:40:01.172Z,0.60
2019-03-16T06:44:55.780Z,0.60
2019-03-16T06:49:50.397Z,0.70
2019-03-16T06:54:44.986Z,0.60
2019-03-16T06:59:39.580Z,0.70
2019-03-16T07:04:34.164Z,0.47
2019-03-16T07:09:28.760Z,0.50
2019-03-16T07:14:23.348Z,0.50
2019-03-16T07:19:17.947Z,0.27
2019-03-16T07:24:12.555Z,0.50
2019-03-16T07:29:07.155Z,0.50
2019-03-16T07:34:01.764Z,0.43
2019-03-16T07:38:56.364Z,0.37
2019-03-16T07:43:50.965Z,0.53
2019-03-16T07:48:45.571Z,0.60
2019-03-16T07:53:40.180Z,0.70
2019-03-16T07:58:34.804Z,0.30
2019-03-16T08:03:29.414Z,0.50
2019-03-16T08:08:24.025Z,0.30
2019-03-16T08:13:18.718Z,0.50
2019-03-16T08:18:13.329Z,0.53
2019-03-16T08:23:07.948Z,0.70
2019-03-16T08:28:02.553Z,0.43
2019-03-16T08:32:57.144Z,1.07
2019-03-16T08:37:51.760Z,0.60
2019-03-16T08:42:46.387Z,0.60
2019-03-16T08:47:40.971Z,0.50
2019-03-16T08:52:35.582Z,0.57
2019-03-16T08:57:30.241Z,0.50
2019-03-16T09:02:24.835Z,0.77
2019-03-16T09:07:19.416Z,0.60
2019-03-16T09:12:14.012Z,0.80
2019-03-16T09:17:09.201Z,1.10
2019-03-16T09:22:04.163Z,0.80
2019-03-16T09:26:58.752Z,0.60
2019-03-16T09:31:53.363Z,0.67
2019-03-16T09:36:47.935Z,0.50
2019-03-16T09:41:42.595Z,0.47
2019-03-16T09:46:37.183Z,0.70
2019-03-16T09:51:31.774Z,0.70
2019-03-16T09:56:26.397Z,0.50
2019-03-16T10:01:21.023Z,0.50
2019-03-16T10:06:15.623Z,0.70
2019-03-16T10:11:10.241Z,0.50
2019-03-16T10:16:04.939Z,0.80
2019-03-16T10:20:59.587Z,0.70
2019-03-16T10:25:54.173Z,0.70
2019-03-16T10:30:48.773Z,0.70
2019-03-16T10:35:43.402Z,1.00
2019-03-16T10:40:38.013Z,0.70
2019-03-16T10:45:32.608Z,1.00
2019-03-16T10:50:27.230Z,0.97
2019-03-16T10:55:21.917Z,0.50
2019-03-16T11:00:18.031Z,0.90
2019-03-16T11:05:13.156Z,0.77
2019-03-16T11:10:11.480Z,0.93
2019-03-16T11:15:12.791Z,0.80
2019-03-16T11:20:16.475Z,1.60
2019-03-16T11:25:11.212Z,0.90
2019-03-16T11:30:15.123Z,1.03
2019-03-16T11:35:11.843Z,0.70
2019-03-16T11:40:15.839Z,0.80
2019-03-16T11:45:12.757Z,0.77
2019-03-16T11:50:10.785Z,0.70
2019-03-16T11:55:09.826Z,0.87
2019-03-16T12:00:08.162Z,0.70
2019-03-16T12:05:02.771Z,0.63
2019-03-16T12:09:57.381Z,0.73
2019-03-16T12:14:51.952Z,0.80
2019-03-16T12:19:46.557Z,0.70
2019-03-16T12:24:41.180Z,0.80
2019-03-16T12:29:35.759Z,0.53
2019-03-16T12:34:30.361Z,0.60
2019-03-16T12:39:24.959Z,0.73
2019-03-16T12:44:19.565Z,0.57
2019-03-16T12:49:14.178Z,0.70
2019-03-16T12:54:08.766Z,0.37
2019-03-16T12:59:10.495Z,0.80
2019-03-16T13:03:59.717Z,0.50
2019-03-16T13:08:54.301Z,0.63
2019-03-16T13:13:49.011Z,0.77
2019-03-16T13:18:43.603Z,0.73
2019-03-16T13:23:38.217Z,0.47
2019-03-16T13:28:35.623Z,0.57
2019-03-16T13:33:29.167Z,0.60
2019-03-16T13:38:23.767Z,0.57
2019-03-16T13:43:18.389Z,0.77
2019-03-16T13:48:12.976Z,0.80
2019-03-16T13:53:07.584Z,0.63
2019-03-16T13:58:02.176Z,0.60
2019-03-16T14:02:56.794Z,0.60
2019-03-16T14:07:51.408Z,0.70
2019-03-16T14:12:46.282Z,0.40
2019-03-16T14:17:40.868Z,0.30
2019-03-16T14:22:35.466Z,0.63
2019-03-16T14:27:30.080Z,0.60
2019-03-16T14:32:24.682Z,0.50
2019-03-16T14:37:19.287Z,0.50
2019-03-16T14:42:13.886Z,0.50
2019-03-16T14:47:08.479Z,0.50
2019-03-16T14:52:03.451Z,0.90
2019-03-16T14:56:58.053Z,0.47
2019-03-16T15:01:52.726Z,0.60
2019-03-16T15:06:47.401Z,0.60
2019-03-16T15:11:41.992Z,0.23
2019-03-16T15:16:36.583Z,0.50
2019-03-16T15:21:31.184Z,0.70
2019-03-16T15:26:25.792Z,0.57
2019-03-16T15:31:22.714Z,0.70
2019-03-16T15:36:16.780Z,0.70
2019-03-16T15:41:11.399Z,1.00
2019-03-16T15:46:06.056Z,0.70
2019-03-16T15:51:00.665Z,0.57
2019-03-16T15:55:55.268Z,0.60
2019-03-16T16:01:02.691Z,0.60
2019-03-16T16:05:46.425Z,0.70
2019-03-16T16:10:41.057Z,0.53
2019-03-16T16:15:35.667Z,0.50
2019-03-16T16:20:30.268Z,0.60
2019-03-16T16:25:24.845Z,0.80
2019-03-16T16:30:23.017Z,0.83
2019-03-16T16:35:17.866Z,0.90
2019-03-16T16:40:20.604Z,1.00
2019-03-16T16:45:19.807Z,0.87
2019-03-16T16:50:23.940Z,0.80
2019-03-16T16:55:18.612Z,0.63
2019-03-16T17:00:17.549Z,0.63
2019-03-16T17:05:12.335Z,0.80
2019-03-16T17:10:11.532Z,0.90
2019-03-16T17:15:10.311Z,0.80
2019-03-16T17:20:08.378Z,1.20
2019-03-16T17:25:02.984Z,1.30
2019-03-16T17:29:57.611Z,0.90
2019-03-16T17:34:52.197Z,1.50
2019-03-16T17:39:46.818Z,1.10
2019-03-16T17:44:41.450Z,1.20
2019-03-16T17:49:36.047Z,1.20
2019-03-16T17:54:30.666Z,1.20
2019-03-16T17:59:25.285Z,1.57
2019-03-16T18:04:19.974Z,1.30
2019-03-16T18:09:14.583Z,1.17
2019-03-16T18:14:09.266Z,1.50
2019-03-16T18:19:03.936Z,1.67
2019-03-16T18:23:58.530Z,1.60
2019-03-16T18:28:53.126Z,2.33
2019-03-16T18:33:47.722Z,2.00
2019-03-16T18:38:42.321Z,2.27
2019-03-16T18:43:36.939Z,2.97
2019-03-16T18:48:31.546Z,3.10
2019-03-16T18:53:26.173Z,3.37
2019-03-16T18:58:20.972Z,3.37
2019-03-16T19:03:15.544Z,3.37
2019-03-16T19:08:10.148Z,3.20
2019-03-16T19:13:04.816Z,3.90
2019-03-16T19:17:59.615Z,4.43
2019-03-16T19:22:54.238Z,4.10
2019-03-16T19:27:48.890Z,4.40
2019-03-16T19:32:43.853Z,4.23
2019-03-16T19:37:38.423Z,4.10
2019-03-16T19:42:33.044Z,5.10
2019-03-16T19:47:27.653Z,4.03
2019-03-16T19:52:22.256Z,5.13
2019-03-16T19:57:16.870Z,3.40
2019-03-16T20:02:11.457Z,2.50
2019-03-16T20:07:18.480Z,3.00
2019-03-16T20:12:02.529Z,4.17
2019-03-16T20:16:57.143Z,4.20
2019-03-16T20:21:51.819Z,5.73
2019-03-16T20:26:47.306Z,8.50
2019-03-16T20:31:46.726Z,7.67
2019-03-16T20:36:38.250Z,9.13
2019-03-16T20:41:36.506Z,9.40
2019-03-16T20:46:29.182Z,9.20
2019-03-16T20:51:23.768Z,7.70
2019-03-16T20:56:18.367Z,7.70
2019-03-16T21:01:13.147Z,7.60
2019-03-16T21:06:07.810Z,8.37
2019-03-16T21:11:02.398Z,4.30
2019-03-16T21:15:56.984Z,7.57
2019-03-16T21:20:51.598Z,5.30
2019-03-16T21:25:46.188Z,6.83
2019-03-16T21:30:40.809Z,5.13
2019-03-16T21:35:35.416Z,3.57
2019-03-16T21:40:30.016Z,5.23
2019-03-16T21:45:24.624Z,5.13
2019-03-16T21:50:19.293Z,5.67
2019-03-16T21:55:15.194Z,4.77
2019-03-16T22:00:18.534Z,4.80
2019-03-16T22:05:13.723Z,5.20
2019-03-16T22:10:12.552Z,5.33
2019-03-16T22:15:13.367Z,6.00
2019-03-16T22:20:12.549Z,6.27
2019-03-16T22:25:09.567Z,6.50
2019-03-16T22:30:09.604Z,5.00
2019-03-16T22:35:05.115Z,4.60
2019-03-16T22:39:59.715Z,6.63
2019-03-16T22:44:54.321Z,5.33
2019-03-16T22:49:48.923Z,4.83
2019-03-16T22:54:43.534Z,4.60
2019-03-16T22:59:38.127Z,4.30
2019-03-16T23:04:32.696Z,4.60
2019-03-16T23:09:27.306Z,5.10
2019-03-16T23:14:21.917Z,4.50
2019-03-16T23:19:16.518Z,4.23
2019-03-16T23:24:11.111Z,4.20
2019-03-16T23:29:05.775Z,4.30
2019-03-16T23:34:00.363Z,3.77
2019-03-16T23:38:54.991Z,4.10
2019-03-16T23:43:49.594Z,4.17
2019-03-16T23:48:44.319Z,3.40
2019-03-16T23:53:38.911Z,4.30
2019-03-16T23:58:33.509Z,4.17
